Time;durP1;ratioP1;P1;durP2;ratioP2;P2;SDS_P1;SDS_P2;PMS_P1;PMS_P2;Temp;Humidity;BMP_temperature;BMP_pressure;BME280_temperature;BME280_humidity;BME280_pressure;Samples;Min_cycle;Max_cycle;Signal;HPM_P1;HPM_P2
2020/12/15 00:01:41;;;;;;;;;;;;;;;;;;4995011;28;20420;-84
2020/12/15 00:04:07;;;;;;;;;;;;;;;;;;4995268;28;20770;-84
2020/12/15 00:06:34;;;;;;;;;;;;;;;;;;4994984;28;20401;-83
2020/12/15 00:09:00;;;;;;;;;;;;;;;;;;4994936;28;20487;-82
2020/12/15 00:11:26;;;;;;;;;;;;;;;;;;4991685;28;20412;-82
2020/12/15 00:13:53;;;;;;;;;;;;;;;;;;4995217;28;20457;-83
2020/12/15 00:16:19;;;;;;;;;;;;;;;;;;4994555;28;20856;-83
2020/12/15 00:18:45;;;;;;;;;;;;;;;;;;4994614;28;20405;-84
2020/12/15 00:21:12;;;;;;;;;;;;;;;;;;4994673;28;20400;-82
2020/12/15 00:23:38;;;;;;;;;;;;;;;;;;4981591;28;20836;-82
2020/12/15 00:26:05;;;;;;;;;;;;;;;;;;4975368;28;20399;-83
2020/12/15 00:28:31;;;;;;;;;;;;;;;;;;4977150;28;20399;-82
2020/12/15 00:30:57;;;;;;;;;;;;;;;;;;5007803;28;20418;-83
2020/12/15 00:33:24;;;;;;;;;;;;;;;;;;4998670;28;20408;-82
2020/12/15 00:35:50;;;;;;;;;;;;;;;;;;4996741;28;20424;-84
2020/12/15 00:38:16;;;;;;;;;;;;;;;;;;4996376;28;20483;-83
2020/12/15 00:40:43;;;;;;;;;;;;;;;;;;4992029;28;20397;-84
2020/12/15 00:43:09;;;;;;;;;;;;;;;;;;4998096;28;20436;-84
2020/12/15 00:45:36;;;;;;;;;;;;;;;;;;5027834;28;20454;-83
2020/12/15 00:48:02;;;;;;;;;;;;;;;;;;4997421;28;20396;-84
2020/12/15 00:50:28;;;;;;;;;;;;;;;;;;4998289;28;20405;-83
2020/12/15 00:52:55;;;;;;;;;;;;;;;;;;4996852;28;20413;-84
2020/12/15 00:55:21;;;;;;;;;;;;;;;;;;4994796;28;20401;-83
2020/12/15 00:57:47;;;;;;;;;;;;;;;;;;4996214;28;20876;-82
2020/12/15 01:00:14;;;;;;;;;;;;;;;;;;4996091;28;20415;-82
2020/12/15 01:02:40;;;;;;;;;;;;;;;;;;4995617;28;20515;-82
2020/12/15 01:05:07;;;;;;;;;;;;;;;;;;4995261;28;20857;-84
2020/12/15 01:07:33;;;;;;;;;;;;;;;;;;4988966;28;20810;-84
2020/12/15 01:09:59;;;;;;;;;;;;;;;;;;4994930;28;20389;-82
2020/12/15 01:12:26;;;;;;;;;;;;;;;;;;4993330;28;20405;-83
2020/12/15 01:14:52;;;;;;;;;;;;;;;;;;4994337;28;21141;-82
2020/12/15 01:17:18;;;;;;;;;;;;;;;;;;4993552;28;20397;-82
2020/12/15 01:19:45;;;;;;;;;;;;;;;;;;4993145;28;20393;-83
2020/12/15 01:22:11;;;;;;;;;;;;;;;;;;4992843;28;20421;-82
2020/12/15 01:24:38;;;;;;;;;;;;;;;;;;4994858;28;20737;-82
2020/12/15 01:27:04;;;;;;;;;;;;;;;;;;4995956;28;20397;-82
2020/12/15 01:29:30;;;;;;;;;;;;;;;;;;5011532;28;20409;-84
2020/12/15 01:31:57;;;;;;;;;;;;;;;;;;5005924;28;20409;-84
2020/12/15 01:34:23;;;;;;;;;;;;;;;;;;4994711;28;20393;-84
2020/12/15 01:36:49;;;;;;;;;;;;;;;;;;4993512;28;20389;-84
2020/12/15 01:39:16;;;;;;;;;;;;;;;;;;4994469;28;20475;-84
2020/12/15 01:41:42;;;;;;;;;;;;;;;;;;4994189;28;20413;-83
2020/12/15 01:44:08;;;;;;;;;;;;;;;;;;4994629;28;20397;-85
2020/12/15 01:46:35;;;;;;;;;;;;;;;;;;4994486;28;20404;-84
2020/12/15 01:49:01;;;;;;;;;;;;;;;;;;4994279;28;20183;-84
2020/12/15 01:51:28;;;;;;;;;;;;;;;;;;4993762;28;20455;-84
2020/12/15 01:53:58;;;;;;;;;;;;;;;;;;5108594;23;20408;-84
2020/12/15 01:56:24;;;;;;;;;;;;;;;;;;5121738;28;20467;-84
2020/12/15 01:58:51;;;;;;;;;;;;;;;;;;5124003;28;20384;-84
2020/12/15 02:01:17;;;;;;;;;;;;;;;;;;5123436;28;20443;-84
2020/12/15 02:03:44;;;;;;;;;;;;;;;;;;5079538;28;20420;-84
2020/12/15 02:06:10;;;;;;;;;;;;;;;;;;5039241;28;20448;-84
2020/12/15 02:08:36;;;;;;;;;;;;;;;;;;5038173;28;20418;-83
2020/12/15 02:11:03;;;;;;;;;;;;;;;;;;5022283;28;20414;-85
2020/12/15 02:13:29;;;;;;;;;;;;;;;;;;5020228;28;20414;-85
2020/12/15 02:15:55;;;;;;;;;;;;;;;;;;5021857;28;20394;-84
2020/12/15 02:18:22;;;;;;;;;;;;;;;;;;5032773;28;20390;-85
2020/12/15 02:20:48;;;;;;;;;;;;;;;;;;5037755;28;20390;-85
2020/12/15 02:23:15;;;;;;;;;;;;;;;;;;5020897;28;20417;-85
2020/12/15 02:25:41;;;;;;;;;;;;;;;;;;5023270;28;20395;-85
2020/12/15 02:28:07;;;;;;;;;;;;;;;;;;5032284;28;20387;-84
2020/12/15 02:30:34;;;;;;;;;;;;;;;;;;5038011;28;20371;-83
2020/12/15 02:33:00;;;;;;;;;;;;;;;;;;5051760;28;20421;-84
2020/12/15 02:35:26;;;;;;;;;;;;;;;;;;5051123;28;20366;-84
2020/12/15 02:37:53;;;;;;;;;;;;;;;;;;5053401;28;20367;-85
2020/12/15 02:40:19;;;;;;;;;;;;;;;;;;5026660;28;20386;-86
2020/12/15 02:42:46;;;;;;;;;;;;;;;;;;5035622;28;20411;-86
2020/12/15 02:45:12;;;;;;;;;;;;;;;;;;5031940;28;20436;-86
2020/12/15 02:47:38;;;;;;;;;;;;;;;;;;5043169;28;20374;-84
2020/12/15 02:50:05;;;;;;;;;;;;;;;;;;5049382;28;20387;-86
2020/12/15 02:52:31;;;;;;;;;;;;;;;;;;5033736;27;20434;-86
2020/12/15 02:54:57;;;;;;;;;;;;;;;;;;5031690;28;20391;-86
2020/12/15 02:57:24;;;;;;;;;;;;;;;;;;5036515;28;20380;-86
2020/12/15 02:59:50;;;;;;;;;;;;;;;;;;5025014;28;20447;-85
2020/12/15 03:02:17;;;;;;;;;;;;;;;;;;5037683;28;20435;-84
2020/12/15 03:04:43;;;;;;;;;;;;;;;;;;5039639;28;20396;-84
2020/12/15 03:07:09;;;;;;;;;;;;;;;;;;5047157;28;20377;-85
2020/12/15 03:09:36;;;;;;;;;;;;;;;;;;5052588;28;20371;-84
2020/12/15 03:12:02;;;;;;;;;;;;;;;;;;5050171;28;20366;-83
2020/12/15 03:14:29;;;;;;;;;;;;;;;;;;5041317;28;20378;-84
2020/12/15 03:16:55;;;;;;;;;;;;;;;;;;5036524;28;20391;-84
2020/12/15 03:19:21;;;;;;;;;;;;;;;;;;5039508;28;20383;-84
2020/12/15 03:21:48;;;;;;;;;;;;;;;;;;5037330;28;20475;-84
2020/12/15 03:24:14;;;;;;;;;;;;;;;;;;5036265;28;20399;-84
2020/12/15 03:26:41;;;;;;;;;;;;;;;;;;5022008;28;20373;-85
2020/12/15 03:29:07;;;;;;;;;;;;;;;;;;5017114;28;20398;-84
2020/12/15 03:31:33;;;;;;;;;;;;;;;;;;5022836;28;20411;-84
2020/12/15 03:34:00;;;;;;;;;;;;;;;;;;5041124;28;20414;-85
2020/12/15 03:36:26;;;;;;;;;;;;;;;;;;5052077;28;20148;-83
2020/12/15 03:38:52;;;;;;;;;;;;;;;;;;5046716;28;20420;-86
2020/12/15 03:41:19;;;;;;;;;;;;;;;;;;5035796;28;20395;-86
2020/12/15 03:43:45;;;;;;;;;;;;;;;;;;5029895;28;20416;-86
2020/12/15 03:46:12;;;;;;;;;;;;;;;;;;5039838;28;20393;-86
2020/12/15 03:48:38;;;;;;;;;;;;;;;;;;5043700;28;20387;-86
2020/12/15 03:51:04;;;;;;;;;;;;;;;;;;5033688;28;20392;-85
2020/12/15 03:53:31;;;;;;;;;;;;;;;;;;5034234;28;20397;-85
2020/12/15 03:55:57;;;;;;;;;;;;;;;;;;5045961;28;20383;-84
2020/12/15 03:58:23;;;;;;;;;;;;;;;;;;5038652;28;20379;-85
2020/12/15 04:00:50;;;;;;;;;;;;;;;;;;5034405;28;20154;-84
2020/12/15 04:03:16;;;;;;;;;;;;;;;;;;5034923;28;20407;-86
2020/12/15 04:05:43;;;;;;;;;;;;;;;;;;5027789;28;20870;-85
2020/12/15 04:08:09;;;;;;;;;;;;;;;;;;5039434;28;20444;-85
2020/12/15 04:10:35;;;;;;;;;;;;;;;;;;5040138;28;20391;-85
2020/12/15 04:13:02;;;;;;;;;;;;;;;;;;5026848;28;20805;-85
2020/12/15 04:15:28;;;;;;;;;;;;;;;;;;5033296;28;20143;-84
2020/12/15 04:17:54;;;;;;;;;;;;;;;;;;5041588;28;19921;-85
2020/12/15 04:20:21;;;;;;;;;;;;;;;;;;5041693;28;19921;-85
2020/12/15 04:22:47;;;;;;;;;;;;;;;;;;5032202;28;19921;-86
2020/12/15 04:25:14;;;;;;;;;;;;;;;;;;5052175;28;19921;-86
2020/12/15 04:27:40;;;;;;;;;;;;;;;;;;5052544;28;19926;-86
2020/12/15 04:30:07;;;;;;;;;;;;;;;;;;5018776;28;19922;-85
2020/12/15 04:32:33;;;;;;;;;;;;;;;;;;5025885;28;19925;-86
2020/12/15 04:35:00;;;;;;;;;;;;;;;;;;5036481;28;19947;-85
2020/12/15 04:37:26;;;;;;;;;;;;;;;;;;5018415;28;19925;-86
2020/12/15 04:39:52;;;;;;;;;;;;;;;;;;5019594;28;20373;-85
2020/12/15 04:42:19;;;;;;;;;;;;;;;;;;5030325;28;19966;-84
2020/12/15 04:44:46;;;;;;;;;;;;;;;;;;5019722;28;19921;-84
2020/12/15 04:47:12;;;;;;;;;;;;;;;;;;5021827;28;19921;-83
2020/12/15 04:49:39;;;;;;;;;;;;;;;;;;5039141;28;19921;-85
2020/12/15 04:52:05;;;;;;;;;;;;;;;;;;5033313;28;19974;-84
2020/12/15 04:54:32;;;;;;;;;;;;;;;;;;5039130;28;19942;-85
2020/12/15 04:57:00;;;;;;;;;;;;;;;;;;5037597;28;19959;-85
2020/12/15 04:59:26;;;;;;;;;;;;;;;;;;5020316;28;19925;-84
2020/12/15 05:01:53;;;;;;;;;;;;;;;;;;5032945;28;19946;-85
2020/12/15 05:04:19;;;;;;;;;;;;;;;;;;5037104;28;20819;-85
2020/12/15 05:06:45;;;;;;;;;;;;;;;;;;5033509;28;20402;-84
2020/12/15 05:09:12;;;;;;;;;;;;;;;;;;5037736;28;20392;-85
2020/12/15 05:11:38;;;;;;;;;;;;;;;;;;5020999;28;20391;-85
2020/12/15 05:14:05;;;;;;;;;;;;;;;;;;5025273;28;20412;-86
2020/12/15 05:16:31;;;;;;;;;;;;;;;;;;5026063;28;20409;-85
2020/12/15 05:18:57;;;;;;;;;;;;;;;;;;5017348;28;20443;-84
2020/12/15 05:21:24;;;;;;;;;;;;;;;;;;5021986;28;20390;-84
2020/12/15 05:23:51;;;;;;;;;;;;;;;;;;5038577;28;20407;-84
2020/12/15 05:26:17;;;;;;;;;;;;;;;;;;5019831;28;20398;-84
2020/12/15 05:28:43;;;;;;;;;;;;;;;;;;5038611;28;20448;-85
2020/12/15 05:31:10;;;;;;;;;;;;;;;;;;5042562;28;20387;-85
2020/12/15 05:33:36;;;;;;;;;;;;;;;;;;5051601;28;20454;-84
2020/12/15 05:36:03;;;;;;;;;;;;;;;;;;5029213;28;20398;-85
2020/12/15 05:38:29;;;;;;;;;;;;;;;;;;5037058;28;20391;-85
2020/12/15 05:40:55;;;;;;;;;;;;;;;;;;5021637;28;20436;-85
2020/12/15 05:43:22;;;;;;;;;;;;;;;;;;5037431;28;20881;-83
2020/12/15 05:45:48;;;;;;;;;;;;;;;;;;5023918;28;20395;-87
2020/12/15 05:48:14;;;;;;;;;;;;;;;;;;5038901;28;20396;-84
2020/12/15 05:50:41;;;;;;;;;;;;;;;;;;5035815;28;20294;-85
2020/12/15 05:53:07;;;;;;;;;;;;;;;;;;5035928;28;20410;-85
2020/12/15 05:55:34;;;;;;;;;;;;;;;;;;5035652;28;20378;-86
2020/12/15 05:58:00;;;;;;;;;;;;;;;;;;5023044;28;20411;-86
2020/12/15 06:00:26;;;;;;;;;;;;;;;;;;5029007;28;20779;-83
2020/12/15 06:02:53;;;;;;;;;;;;;;;;;;5026036;28;20152;-85
2020/12/15 06:05:19;;;;;;;;;;;;;;;;;;5020118;28;20369;-82
2020/12/15 06:07:45;;;;;;;;;;;;;;;;;;5028602;28;20799;-86
2020/12/15 06:10:12;;;;;;;;;;;;;;;;;;5019884;28;20398;-86
2020/12/15 06:12:38;;;;;;;;;;;;;;;;;;5037504;28;20433;-86
2020/12/15 06:15:05;;;;;;;;;;;;;;;;;;5039201;28;20387;-86
2020/12/15 06:17:31;;;;;;;;;;;;;;;;;;5041845;28;20379;-85
2020/12/15 06:19:57;;;;;;;;;;;;;;;;;;5034124;28;20393;-85
2020/12/15 06:22:24;;;;;;;;;;;;;;;;;;5021406;28;20141;-86
2020/12/15 06:24:50;;;;;;;;;;;;;;;;;;5038752;28;20305;-86
2020/12/15 06:27:17;;;;;;;;;;;;;;;;;;5031266;28;20383;-86
2020/12/15 06:29:43;;;;;;;;;;;;;;;;;;5024198;28;20421;-85
2020/12/15 06:32:09;;;;;;;;;;;;;;;;;;5035002;28;20418;-85
2020/12/15 06:34:36;;;;;;;;;;;;;;;;;;5023648;28;20146;-85
2020/12/15 06:37:02;;;;;;;;;;;;;;;;;;5032830;28;20368;-85
2020/12/15 06:39:29;;;;;;;;;;;;;;;;;;5058687;27;20395;-85
2020/12/15 06:41:55;;;;;;;;;;;;;;;;;;5050518;28;20395;-85
2020/12/15 06:44:21;;;;;;;;;;;;;;;;;;5046782;28;20410;-85
2020/12/15 06:46:48;;;;;;;;;;;;;;;;;;5034257;28;20300;-86
2020/12/15 06:49:14;;;;;;;;;;;;;;;;;;5023036;28;20398;-86
2020/12/15 06:51:40;;;;;;;;;;;;;;;;;;5023374;28;20393;-86
2020/12/15 06:54:07;;;;;;;;;;;;;;;;;;5023737;28;20436;-84
2020/12/15 06:56:37;;;;;;;;;;;;;;;;;;5044337;28;20390;-86
2020/12/15 06:59:03;;;;;;;;;;;;;;;;;;5050206;28;20380;-84
2020/12/15 07:01:30;;;;;;;;;;;;;;;;;;5048009;28;20386;-86
2020/12/15 07:03:56;;;;;;;;;;;;;;;;;;5034588;28;20412;-85
2020/12/15 07:06:23;;;;;;;;;;;;;;;;;;5033677;28;20399;-85
2020/12/15 07:08:49;;;;;;;;;;;;;;;;;;5027614;28;20440;-86
2020/12/15 07:11:15;;;;;;;;;;;;;;;;;;5018824;28;20390;-87
2020/12/15 07:13:42;;;;;;;;;;;;;;;;;;5017937;28;20409;-86
2020/12/15 07:16:08;;;;;;;;;;;;;;;;;;5033348;28;20391;-86
2020/12/15 07:21:15;;;;;;;;;;;;;;;;;;4979896;28;20518;-86
2020/12/15 07:23:42;;;;;;;;;;;;;;;;;;5030061;28;20402;-86
2020/12/15 07:26:08;;;;;;;;;;;;;;;;;;5039262;28;20877;-87
2020/12/15 07:28:34;;;;;;;;;;;;;;;;;;5034532;28;20300;-87
2020/12/15 07:31:01;;;;;;;;;;;;;;;;;;5030430;28;20393;-85
2020/12/15 07:33:27;;;;;;;;;;;;;;;;;;5035393;28;20383;-85
2020/12/15 07:35:53;;;;;;;;;;;;;;;;;;5042075;28;20370;-85
2020/12/15 07:38:20;;;;;;;;;;;;;;;;;;5039427;28;20378;-83
2020/12/15 07:40:46;;;;;;;;;;;;;;;;;;5039869;28;20405;-83
2020/12/15 07:43:16;;;;;;;;;;;;;;;;;;5038760;28;20402;-84
2020/12/15 07:45:43;;;;;;;;;;;;;;;;;;5053681;28;20393;-83
2020/12/15 07:48:10;;;;;;;;;;;;;;;;;;5044343;28;20379;-85
2020/12/15 07:50:36;;;;;;;;;;;;;;;;;;5037608;28;20170;-85
2020/12/15 07:53:03;;;;;;;;;;;;;;;;;;5026151;28;20307;-84
2020/12/15 07:55:29;;;;;;;;;;;;;;;;;;5032133;28;20395;-86
2020/12/15 07:57:55;;;;;;;;;;;;;;;;;;5028153;28;20383;-86
2020/12/15 08:00:22;;;;;;;;;;;;;;;;;;5027990;28;20386;-85
2020/12/15 08:02:48;;;;;;;;;;;;;;;;;;5021974;28;21321;-86
2020/12/15 08:05:15;;;;;;;;;;;;;;;;;;5075591;28;20387;-85
2020/12/15 08:07:41;;;;;;;;;;;;;;;;;;5024634;28;20383;-86
2020/12/15 08:10:07;;;;;;;;;;;;;;;;;;5028957;28;20386;-85
2020/12/15 08:20:48;;;;;;;;;;;;;;;;;;5031805;28;20366;-83
2020/12/15 08:23:15;;;;;;;;;;;;;;;;;;5039644;28;20419;-84
2020/12/15 08:25:43;;;;;;;;;;;;;;;;;;5027056;28;20395;-83
2020/12/15 08:28:09;;;;;;;;;;;;;;;;;;5042977;28;20443;-84
2020/12/15 08:30:36;;;;;;;;;;;;;;;;;;5031976;28;20399;-84
2020/12/15 08:33:03;;;;;;;;;;;;;;;;;;5034909;28;20410;-84
2020/12/15 08:35:29;;;;;;;;;;;;;;;;;;5027081;28;20394;-84
2020/12/15 08:37:55;;;;;;;;;;;;;;;;;;5021966;28;20401;-83
2020/12/15 08:40:22;;;;;;;;;;;;;;;;;;5034182;28;20519;-86
2020/12/15 08:42:48;;;;;;;;;;;;;;;;;;5037160;28;20407;-84
2020/12/15 08:45:15;;;;;;;;;;;;;;;;;;5043395;28;20391;-85
2020/12/15 08:55:52;;;;;;;;;;;;;;;;;;4997188;28;20861;-84
2020/12/15 08:58:18;;;;;;;;;;;;;;;;;;4994110;28;20392;-87
2020/12/15 09:06:16;;;;;;;;;;;;;;;;;;4964340;29;20390;-86
2020/12/15 09:08:43;;;;;;;;;;;;;;;;;;4959081;28;20399;-87
2020/12/15 09:11:10;;;;;;;;;;;;;;;;;;4955158;29;20455;-86
2020/12/15 09:13:36;;;;;;;;;;;;;;;;;;4939416;29;20420;-86
2020/12/15 09:16:03;;;;;;;;;;;;;;;;;;4953558;29;20456;-84
2020/12/15 09:18:29;;;;;;;;;;;;;;;;;;4956672;28;20421;-86
2020/12/15 09:20:57;;;;;;;;;;;;;;;;;;4949693;29;20397;-86
2020/12/15 09:23:23;;;;;;;;;;;;;;;;;;4958269;29;20434;-88
2020/12/15 09:25:50;;;;;;;;;;;;;;;;;;4966362;28;20408;-85
2020/12/15 09:28:16;;;;;;;;;;;;;;;;;;4970871;28;20225;-87
2020/12/15 09:30:42;;;;;;;;;;;;;;;;;;4970421;28;20378;-87
2020/12/15 09:33:09;;;;;;;;;;;;;;;;;;4975467;28;20423;-87
2020/12/15 09:35:36;;;;;;;;;;;;;;;;;;4975401;28;20427;-86
2020/12/15 09:38:02;;;;;;;;;;;;;;;;;;4976293;28;20406;-87
2020/12/15 09:40:29;;;;;;;;;;;;;;;;;;4976048;28;20452;-86
2020/12/15 09:42:58;;;;;;;;;;;;;;;;;;4999778;28;20409;-85
2020/12/15 09:45:24;;;;;;;;;;;;;;;;;;5027903;28;20477;-86
2020/12/15 09:47:52;;;;;;;;;;;;;;;;;;5036807;28;20378;-85
2020/12/15 09:50:18;;;;;;;;;;;;;;;;;;5038050;28;20401;-85
2020/12/15 09:52:45;;;;;;;;;;;;;;;;;;5022020;28;20403;-85
2020/12/15 09:55:11;;;;;;;;;;;;;;;;;;5024842;28;20416;-85
2020/12/15 09:57:37;;;;;;;;;;;;;;;;;;5031773;28;20387;-86
2020/12/15 10:00:04;;;;;;;;;;;;;;;;;;5036631;28;20399;-85
2020/12/15 10:02:30;;;;;;;;;;;;;;;;;;5021176;28;20416;-84
2020/12/15 10:04:56;;;;;;;;;;;;;;;;;;5033616;28;20381;-84
2020/12/15 10:07:23;;;;;;;;;;;;;;;;;;5063809;28;20848;-86
2020/12/15 10:09:54;;;;;;;;;;;;;;;;;;5027691;28;20392;-85
2020/12/15 10:12:21;;;;;;;;;;;;;;;;;;5033339;28;20411;-85
2020/12/15 10:14:47;;;;;;;;;;;;;;;;;;5037449;28;20400;-84
2020/12/15 10:17:13;;;;;;;;;;;;;;;;;;5026275;28;20401;-85
2020/12/15 10:19:40;;;;;;;;;;;;;;;;;;5021516;28;20432;-87
2020/12/15 10:22:06;;;;;;;;;;;;;;;;;;5031801;28;20411;-85
2020/12/15 10:24:33;;;;;;;;;;;;;;;;;;5025349;28;20426;-84
2020/12/15 10:26:59;;;;;;;;;;;;;;;;;;5018026;28;20832;-85
2020/12/15 10:29:29;;;;;;;;;;;;;;;;;;5025528;28;20392;-84
2020/12/15 10:31:55;;;;;;;;;;;;;;;;;;5031125;28;20396;-84
2020/12/15 10:34:22;;;;;;;;;;;;;;;;;;5033799;28;20759;-86
2020/12/15 10:36:49;;;;;;;;;;;;;;;;;;5034475;28;20237;-88
2020/12/15 10:39:15;;;;;;;;;;;;;;;;;;5031067;28;20844;-84
2020/12/15 10:41:42;;;;;;;;;;;;;;;;;;5031107;28;20388;-85
2020/12/15 10:44:14;;;;;;;;;;;;;;;;;;5031588;28;20411;-85
2020/12/15 10:46:40;;;;;;;;;;;;;;;;;;5035103;28;20415;-86
2020/12/15 10:49:07;;;;;;;;;;;;;;;;;;5029609;28;20382;-86
2020/12/15 10:51:34;;;;;;;;;;;;;;;;;;5024589;28;20186;-85
2020/12/15 10:54:02;;;;;;;;;;;;;;;;;;5034640;28;20779;-88
2020/12/15 10:56:29;;;;;;;;;;;;;;;;;;5053834;28;20137;-85
2020/12/15 10:58:56;;;;;;;;;;;;;;;;;;5121691;28;20387;-85
2020/12/15 11:01:23;;;;;;;;;;;;;;;;;;5044093;28;20844;-84
2020/12/15 11:03:49;;;;;;;;;;;;;;;;;;5036956;28;20479;-85
2020/12/15 11:06:16;;;;;;;;;;;;;;;;;;5049713;28;20393;-85
2020/12/15 11:08:42;;;;;;;;;;;;;;;;;;5039370;28;20487;-85
2020/12/15 11:11:09;;;;;;;;;;;;;;;;;;5044426;28;20384;-84
2020/12/15 11:13:35;;;;;;;;;;;;;;;;;;5036993;28;20432;-85
2020/12/15 11:16:01;;;;;;;;;;;;;;;;;;5032639;28;20447;-87
2020/12/15 11:18:28;;;;;;;;;;;;;;;;;;5031362;28;20412;-86
2020/12/15 11:20:54;;;;;;;;;;;;;;;;;;5023598;28;20393;-85
2020/12/15 11:23:21;;;;;;;;;;;;;;;;;;5022553;28;20854;-86
2020/12/15 11:25:49;;;;;;;;;;;;;;;;;;5026774;28;20387;-87
2020/12/15 11:28:15;;;;;;;;;;;;;;;;;;5031802;28;20387;-86
2020/12/15 11:30:42;;;;;;;;;;;;;;;;;;5024304;28;20773;-86
2020/12/15 11:33:08;;;;;;;;;;;;;;;;;;5029611;28;20403;-85
2020/12/15 11:35:35;;;;;;;;;;;;;;;;;;5020742;28;20394;-85
2020/12/15 11:38:01;;;;;;;;;;;;;;;;;;5017459;28;20423;-85
2020/12/15 11:40:27;;;;;;;;;;;;;;;;;;5028692;28;20394;-86
2020/12/15 11:42:56;;;;;;;;;;;;;;;;;;5034729;28;20415;-85
2020/12/15 11:45:22;;;;;;;;;;;;;;;;;;5036008;28;20311;-85
2020/12/15 11:47:48;;;;;;;;;;;;;;;;;;5028580;28;20393;-84
2020/12/15 11:50:15;;;;;;;;;;;;;;;;;;5016879;28;20394;-85
2020/12/15 11:52:41;;;;;;;;;;;;;;;;;;5015989;28;20425;-85
2020/12/15 11:55:08;;;;;;;;;;;;;;;;;;5028898;28;20399;-86
2020/12/15 11:57:34;;;;;;;;;;;;;;;;;;5044661;28;20285;-85
2020/12/15 12:00:03;;;;;;;;;;;;;;;;;;5056259;28;20379;-83
2020/12/15 12:02:29;;;;;;;;;;;;;;;;;;5051576;28;20482;-85
2020/12/15 12:04:55;;;;;;;;;;;;;;;;;;5095305;28;20365;-84
2020/12/15 12:07:23;;;;;;;;;;;;;;;;;;5033103;28;20393;-86
2020/12/15 12:09:49;;;;;;;;;;;;;;;;;;5023037;28;20409;-85
2020/12/15 12:12:16;;;;;;;;;;;;;;;;;;5077703;28;20404;-86
2020/12/15 12:14:42;;;;;;;;;;;;;;;;;;5048142;28;20391;-86
2020/12/15 12:17:08;;;;;;;;;;;;;;;;;;5029031;28;20400;-85
2020/12/15 12:19:35;;;;;;;;;;;;;;;;;;5031042;28;20428;-85
2020/12/15 12:22:01;;;;;;;;;;;;;;;;;;5037182;28;20410;-86
2020/12/15 12:24:28;;;;;;;;;;;;;;;;;;5021635;28;20440;-85
2020/12/15 12:26:56;;;;;;;;;;;;;;;;;;5034341;28;20384;-86
2020/12/15 12:29:22;;;;;;;;;;;;;;;;;;5050406;28;20446;-85
2020/12/15 12:31:49;;;;;;;;;;;;;;;;;;5043488;27;20868;-86
2020/12/15 12:34:15;;;;;;;;;;;;;;;;;;5030962;28;20388;-85
2020/12/15 12:36:42;;;;;;;;;;;;;;;;;;5026122;28;20410;-86
2020/12/15 12:39:08;;;;;;;;;;;;;;;;;;5020985;28;20457;-84
2020/12/15 12:41:34;;;;;;;;;;;;;;;;;;5020759;28;20861;-85
2020/12/15 12:44:01;;;;;;;;;;;;;;;;;;5021272;28;20410;-85
2020/12/15 12:46:27;;;;;;;;;;;;;;;;;;5022743;28;20418;-85
2020/12/15 12:48:54;;;;;;;;;;;;;;;;;;5022655;28;20394;-85
2020/12/15 12:51:20;;;;;;;;;;;;;;;;;;5027278;28;20469;-86
2020/12/15 12:53:46;;;;;;;;;;;;;;;;;;5091665;28;20394;-84
2020/12/15 12:56:13;;;;;;;;;;;;;;;;;;5044200;28;20764;-83
2020/12/15 12:58:39;;;;;;;;;;;;;;;;;;5042584;28;20410;-85
2020/12/15 13:01:06;;;;;;;;;;;;;;;;;;5034367;28;20388;-84
2020/12/15 13:03:32;;;;;;;;;;;;;;;;;;5030214;28;20420;-84
2020/12/15 13:05:59;;;;;;;;;;;;;;;;;;5123857;28;20443;-84
2020/12/15 13:08:25;;;;;;;;;;;;;;;;;;5097823;28;20391;-85
2020/12/15 13:10:51;;;;;;;;;;;;;;;;;;5039892;28;20455;-85
2020/12/15 13:13:18;;;;;;;;;;;;;;;;;;5035298;28;20403;-84
2020/12/15 13:15:44;;;;;;;;;;;;;;;;;;5034964;28;20376;-85
2020/12/15 13:18:11;;;;;;;;;;;;;;;;;;5032697;28;20811;-83
2020/12/15 13:20:37;;;;;;;;;;;;;;;;;;5023809;28;20803;-86
2020/12/15 13:23:05;;;;;;;;;;;;;;;;;;5043397;28;20415;-85
2020/12/15 13:25:32;;;;;;;;;;;;;;;;;;5029882;28;20515;-84
2020/12/15 13:27:58;;;;;;;;;;;;;;;;;;5023854;28;20379;-85
2020/12/15 13:30:24;;;;;;;;;;;;;;;;;;5032119;28;20367;-84
2020/12/15 13:32:51;;;;;;;;;;;;;;;;;;5051082;28;20410;-86
2020/12/15 13:35:17;;;;;;;;;;;;;;;;;;5068665;28;20410;-86
2020/12/15 13:37:44;;;;;;;;;;;;;;;;;;5034226;28;20387;-85
2020/12/15 13:40:11;;;;;;;;;;;;;;;;;;5028387;28;27092;-86
2020/12/15 13:42:37;;;;;;;;;;;;;;;;;;5045882;28;21441;-84
2020/12/15 13:45:04;;;;;;;;;;;;;;;;;;5090976;27;25061;-85
2020/12/15 13:47:30;;;;;;;;;;;;;;;;;;5051475;28;25072;-85
2020/12/15 13:49:56;;;;;;;;;;;;;;;;;;5047421;28;20070;-86
2020/12/15 13:52:23;;;;;;;;;;;;;;;;;;5036708;28;20706;-85
2020/12/15 13:54:49;;;;;;;;;;;;;;;;;;5056736;28;25054;-84
2020/12/15 13:57:15;;;;;;;;;;;;;;;;;;5040797;28;20337;-85
2020/12/15 13:59:42;;;;;;;;;;;;;;;;;;5041950;28;26133;-86
2020/12/15 14:02:08;;;;;;;;;;;;;;;;;;5036374;28;21222;-85
2020/12/15 14:04:35;;;;;;;;;;;;;;;;;;5026211;28;25072;-84
2020/12/15 14:07:01;;;;;;;;;;;;;;;;;;5040512;28;20002;-84
2020/12/15 14:09:28;;;;;;;;;;;;;;;;;;5027770;28;20006;-84
2020/12/15 14:11:54;;;;;;;;;;;;;;;;;;5119527;28;20449;-84
2020/12/15 14:14:20;;;;;;;;;;;;;;;;;;5037304;28;20465;-85
2020/12/15 14:16:47;;;;;;;;;;;;;;;;;;5024140;28;20004;-87
2020/12/15 14:19:13;;;;;;;;;;;;;;;;;;5033566;28;19998;-85
2020/12/15 14:21:39;;;;;;;;;;;;;;;;;;5051477;28;20052;-85
2020/12/15 14:24:06;;;;;;;;;;;;;;;;;;5040202;27;20016;-84
2020/12/15 14:26:32;;;;;;;;;;;;;;;;;;5037288;27;19987;-84
2020/12/15 14:28:59;;;;;;;;;;;;;;;;;;5048155;27;20073;-85
2020/12/15 14:31:29;;;;;;;;;;;;;;;;;;5038200;28;19998;-86
2020/12/15 14:33:56;;;;;;;;;;;;;;;;;;5035913;28;20026;-83
2020/12/15 14:39:03;;;;;;;;;;;;;;;;;;5056322;28;20011;-84
2020/12/15 14:41:30;;;;;;;;;;;;;;;;;;5086018;28;19925;-83
2020/12/15 14:43:57;;;;;;;;;;;;;;;;;;5033003;28;19926;-84
2020/12/15 14:46:27;;;;;;;;;;;;;;;;;;5035064;28;20002;-83
2020/12/15 14:48:56;;;;;;;;;;;;;;;;;;5042180;28;20047;-83
2020/12/15 14:51:22;;;;;;;;;;;;;;;;;;5033093;28;19984;-82
2020/12/15 14:53:49;;;;;;;;;;;;;;;;;;5030935;28;20056;-81
2020/12/15 14:56:16;;;;;;;;;;;;;;;;;;5037435;28;19972;-82
2020/12/15 14:58:42;;;;;;;;;;;;;;;;;;5054259;28;19986;-83
2020/12/15 15:01:09;;;;;;;;;;;;;;;;;;5055206;28;19935;-82
2020/12/15 15:03:36;;;;;;;;;;;;;;;;;;5054004;28;20029;-82
2020/12/15 15:06:02;;;;;;;;;;;;;;;;;;5053736;28;20002;-81
2020/12/15 15:08:29;;;;;;;;;;;;;;;;;;5046592;28;19979;-82
2020/12/15 15:10:55;;;;;;;;;;;;;;;;;;5033498;28;19974;-82
2020/12/15 15:13:21;;;;;;;;;;;;;;;;;;5033448;28;20102;-82
2020/12/15 15:15:48;;;;;;;;;;;;;;;;;;5043298;28;20012;-83
2020/12/15 15:18:14;;;;;;;;;;;;;;;;;;5115928;28;20002;-82
2020/12/15 15:20:41;;;;;;;;;;;;;;;;;;5133273;28;20004;-82
2020/12/15 15:23:07;;;;;;;;;;;;;;;;;;5079528;28;19921;-82
2020/12/15 15:25:34;;;;;;;;;;;;;;;;;;5049031;28;20037;-83
2020/12/15 15:28:01;;;;;;;;;;;;;;;;;;5038328;28;20023;-82
2020/12/15 15:30:27;;;;;;;;;;;;;;;;;;5029325;28;20028;-83
2020/12/15 15:32:54;;;;;;;;;;;;;;;;;;5041448;28;19979;-83
2020/12/15 15:35:21;;;;;;;;;;;;;;;;;;5032803;28;19996;-84
2020/12/15 15:37:48;;;;;;;;;;;;;;;;;;5095330;28;20069;-83
2020/12/15 15:40:14;;;;;;;;;;;;;;;;;;5050350;28;19949;-85
2020/12/15 15:42:41;;;;;;;;;;;;;;;;;;5043975;28;19950;-83
2020/12/15 15:45:08;;;;;;;;;;;;;;;;;;5029688;28;20330;-83
2020/12/15 15:47:34;;;;;;;;;;;;;;;;;;5025737;28;19963;-83
2020/12/15 15:50:02;;;;;;;;;;;;;;;;;;5037941;28;19962;-83
2020/12/15 15:52:28;;;;;;;;;;;;;;;;;;5045666;28;19956;-84
2020/12/15 15:54:55;;;;;;;;;;;;;;;;;;5043601;28;19967;-82
2020/12/15 15:57:21;;;;;;;;;;;;;;;;;;5038474;28;19957;-81
2020/12/15 15:59:48;;;;;;;;;;;;;;;;;;5023298;28;20001;-82
2020/12/15 16:02:14;;;;;;;;;;;;;;;;;;5027874;28;20454;-82
2020/12/15 16:04:42;;;;;;;;;;;;;;;;;;5046598;28;19975;-82
2020/12/15 16:07:09;;;;;;;;;;;;;;;;;;5038812;28;19974;-82
2020/12/15 16:09:35;;;;;;;;;;;;;;;;;;5031279;28;19998;-83
2020/12/15 16:12:02;;;;;;;;;;;;;;;;;;5038672;28;19905;-82
2020/12/15 16:14:28;;;;;;;;;;;;;;;;;;5034819;27;19990;-84
2020/12/15 16:16:55;;;;;;;;;;;;;;;;;;5028670;28;19935;-83
2020/12/15 16:19:23;;;;;;;;;;;;;;;;;;5034624;28;19943;-84
2020/12/15 16:21:50;;;;;;;;;;;;;;;;;;5034952;28;19949;-81
2020/12/15 16:24:16;;;;;;;;;;;;;;;;;;5020754;28;19925;-82
2020/12/15 16:26:42;;;;;;;;;;;;;;;;;;5024274;28;19924;-82
2020/12/15 16:29:12;;;;;;;;;;;;;;;;;;5032477;28;20512;-82
2020/12/15 16:31:38;;;;;;;;;;;;;;;;;;5035052;28;25080;-81
2020/12/15 16:34:05;;;;;;;;;;;;;;;;;;5036077;28;20178;-83
2020/12/15 16:36:31;;;;;;;;;;;;;;;;;;5039150;28;25082;-80
2020/12/15 16:38:59;;;;;;;;;;;;;;;;;;5029407;28;20093;-82
2020/12/15 16:41:25;;;;;;;;;;;;;;;;;;5025496;28;25072;-83
2020/12/15 16:43:52;;;;;;;;;;;;;;;;;;5029789;28;20027;-82
2020/12/15 16:46:18;;;;;;;;;;;;;;;;;;5031887;28;19998;-82
2020/12/15 16:48:45;;;;;;;;;;;;;;;;;;5033035;28;20057;-82
2020/12/15 16:51:11;;;;;;;;;;;;;;;;;;5025930;28;19945;-82
2020/12/15 16:53:38;;;;;;;;;;;;;;;;;;5040472;28;19972;-83
2020/12/15 16:56:04;;;;;;;;;;;;;;;;;;5027681;28;19999;-84
2020/12/15 16:58:30;;;;;;;;;;;;;;;;;;5043352;28;19921;-84
2020/12/15 17:00:58;;;;;;;;;;;;;;;;;;5033539;28;19921;-83
2020/12/15 17:03:27;;;;;;;;;;;;;;;;;;5035286;28;20285;-83
2020/12/15 17:05:53;;;;;;;;;;;;;;;;;;5043195;28;20330;-84
2020/12/15 17:08:20;;;;;;;;;;;;;;;;;;5042563;28;19990;-84